Elba, Idaho
Current Conditions -  °F | °C
As of 11:53 AM on Monday 20 Oct 2014 (Local Time) from KBYI Reporting Station
Broken Clouds Broken Clouds  
Wind Chill: 66°   Ceiling: 12000
Heat Index: 66°   Visibility: 10mi
Dew Point: 38°   Wind: 5mph
Humidity: 36%   Direction: 100°E
Pressure: 29.96"   Gusts: NA
Location:  42.25°N, 113.56°W
Report Text: KBYI 201753Z AUTO 10004KT 10SM BKN120 19/03 A2996 RMK AO2 SLP121 T01890033 10189 20056 58004
Loading
Personal Weather Stations






























Interactive Weather Map
Tropical Storm Tracking
New forecast layout! Learn more

10-Day Weather Forecast

Advertisements
Track Severe Weather on mobile